Have a Safe July 4th! 

Flight Track Log - Related Links

Times and Time Zones

All times are in EDT time to prevent confusion due to time zone crossing. See the N163CA flight status page for this flight to view local times or setup timezone preferences in your user account.

Time Position Orientation Groundspeed Altitude Reporting Facility
EDT Latitude Longitude Course Direction KTS MPH feet Rate Location/Type
Mon 11:27:06 PM 27.7500 -82.1500 41° Northeast 149 171 3,500  Level Tampa TRACON
Mon 11:28:00 PM 27.7833 -82.1333 24° Northeast 151 174 3,400 -50 Descending Tampa TRACON
Mon 11:29:06 PM 27.8167 -82.1000 41° Northeast 148 170 3,400  Level Tampa TRACON
Mon 11:29:54 PM 27.8500 -82.0833 24° Northeast 147 169 3,400  Level Tampa TRACON
Mon 11:31:31 PM 27.9000 -82.0333 41° Northeast 151 174 3,400  Level Orlando TRACON
Mon 11:32:00 PM 28.1495 -81.8602 41° Northeast  Level Estimated
Mon 11:32:31 PM 27.9333 -82.0000 41° Northeast 151 174 3,400  Level Orlando TRACON
Mon 11:33:25 PM 27.9667 -81.9667 41° Northeast 149 171 3,400 105 Level Orlando TRACON
Mon 11:34:25 PM 28.0000 -81.9500 24° Northeast 149 171 3,600 43 Climbing Orlando TRACON
Mon 11:35:43 PM 28.0333 -81.9000 53° Northeast 151 174 3,500 -43 Descending Orlando TRACON
Mon 11:36:43 PM 28.0667 -81.8667 41° Northeast 152 175 3,500  Level Orlando TRACON
Mon 11:37:43 PM 28.1000 -81.8500 24° Northeast 151 174 3,500 -50 Level Orlando TRACON
Mon 11:38:43 PM 28.1333 -81.8167 41° Northeast 152 175 3,400 -50 Descending Orlando TRACON
Mon 11:39:43 PM 28.1667 -81.7833 41° Northeast 148 170 3,400  Level Orlando TRACON
Mon 11:40:49 PM 28.2000 -81.7500 41° Northeast 147 169 3,400  Level Orlando TRACON
Mon 11:41:49 PM 28.2333 -81.7167 41° Northeast 153 176 3,400  Level Orlando TRACON
Mon 11:42:43 PM 28.2667 -81.7000 24° Northeast 151 174 3,400  Level Orlando TRACON
Mon 11:43:43 PM 28.3000 -81.6667 41° Northeast 150 173 3,400  Level Orlando TRACON
Mon 11:44:37 PM 28.3333 -81.6500 24° Northeast 150 173 3,400  Level Orlando TRACON
Mon 11:45:31 PM 28.3500 -81.6167 60° Northeast 149 171 3,400  Level Orlando TRACON
Mon 11:46:25 PM 28.3833 -81.6000 24° Northeast 146 168 3,400  Level Orlando TRACON
Mon 11:47:26 PM 28.4167 -81.5833 24° Northeast 150 173 3,400  Level Orlando TRACON
Mon 11:48:26 PM 28.4667 -81.5833 360° North 149 171 3,400  Level Orlando TRACON
Mon 11:49:26 PM 28.5000 -81.5833 360° North 149 171 3,400  Level Orlando TRACON
Mon 11:50:26 PM 28.5500 -81.5667 16° North 146 168 3,400 -50 Level Orlando TRACON
Mon 11:51:26 PM 28.5833 -81.5333 41° Northeast 143 165 3,300 -250 Descending Orlando TRACON
Mon 11:52:26 PM 28.6000 -81.5000 60° Northeast 160 184 2,900 -450 Descending Orlando TRACON
Mon 11:53:26 PM 28.6333 -81.4667 41° Northeast 163 188 2,400 -524 Descending Orlando TRACON
Mon 11:54:32 PM 28.6833 -81.4333 30° Northeast 164 189 1,800 -333 Descending Orlando TRACON
Mon 11:55:32 PM 28.7167 -81.4000 41° Northeast 159 183 1,700  Descending Orlando TRACON
Mon 11:56:26 PM 28.7333 -81.3667 60° Northeast 150 173 1,800 111 Climbing Orlando TRACON

Login

Don't have an account? Register now (free) for customized features, flight alerts, and more!